Time;durP1;ratioP1;P1;durP2;ratioP2;P2;SDS_P1;SDS_P2;PMS_P1;PMS_P2;Temp;Humidity;BMP_temperature;BMP_pressure;BME280_temperature;BME280_humidity;BME280_pressure;Samples;Min_cycle;Max_cycle;Signal;HPM_P1;HPM_P2
2023/02/15 00:00:16;;;;;;;5.07;1.70;;;1.40;99.90;;;;;;5069168;28;20167;-60
2023/02/15 00:02:41;;;;;;;2.58;1.73;;;1.30;99.90;;;;;;5068246;28;20427;-62
2023/02/15 00:05:08;;;;;;;4.35;1.52;;;1.40;99.90;;;;;;5061787;28;20029;-62
2023/02/15 00:07:34;;;;;;;2.75;1.60;;;1.40;99.90;;;;;;5063304;28;20127;-62
2023/02/15 00:09:59;;;;;;;2.38;1.55;;;1.40;99.90;;;;;;5070962;28;20215;-63
2023/02/15 00:12:25;;;;;;;1.73;1.40;;;1.40;99.90;;;;;;5067130;28;20049;-63
2023/02/15 00:14:50;;;;;;;2.83;1.75;;;1.40;99.90;;;;;;5069996;28;20048;-61
2023/02/15 00:17:16;;;;;;;2.92;1.67;;;1.40;99.90;;;;;;5058532;28;20691;-62
2023/02/15 00:19:42;;;;;;;2.22;1.40;;;1.40;99.90;;;;;;5059639;28;20059;-62
2023/02/15 00:22:08;;;;;;;2.40;1.52;;;1.40;99.90;;;;;;5052201;28;20045;-61
2023/02/15 00:24:33;;;;;;;2.03;1.42;;;1.40;99.90;;;;;;5058408;28;20037;-62
2023/02/15 00:26:59;;;;;;;3.30;1.55;;;1.40;99.90;;;;;;5050680;28;20484;-61
2023/02/15 00:29:25;;;;;;;2.47;1.30;;;1.30;99.90;;;;;;5057371;28;20044;-61
2023/02/15 00:31:51;;;;;;;2.30;1.45;;;1.30;99.90;;;;;;5046960;28;20044;-60
2023/02/15 00:34:19;;;;;;;3.90;1.92;;;1.30;99.90;;;;;;5056349;28;20045;-62
2023/02/15 00:36:45;;;;;;;3.00;1.63;;;1.30;99.90;;;;;;5051511;28;20074;-60
2023/02/15 00:39:11;;;;;;;3.28;1.80;;;1.30;99.90;;;;;;5039847;28;20072;-63
2023/02/15 00:41:37;;;;;;;2.25;1.50;;;1.20;99.90;;;;;;5045216;28;20040;-60
2023/02/15 00:44:03;;;;;;;2.58;1.75;;;1.20;99.90;;;;;;5055505;28;20044;-62
2023/02/15 00:46:29;;;;;;;3.67;1.73;;;1.30;99.90;;;;;;5050552;28;20041;-61
2023/02/15 00:48:55;;;;;;;2.97;1.70;;;1.20;99.90;;;;;;5056600;28;20503;-62
2023/02/15 00:51:21;;;;;;;2.92;1.55;;;1.20;99.90;;;;;;5052232;28;20071;-62
2023/02/15 00:53:47;;;;;;;2.45;1.55;;;1.20;99.90;;;;;;5058280;28;20473;-62
2023/02/15 00:56:12;;;;;;;3.92;2.30;;;1.20;99.90;;;;;;5048021;28;20054;-62
2023/02/15 00:58:38;;;;;;;3.28;1.40;;;1.30;99.90;;;;;;5053374;28;20777;-61
2023/02/15 01:01:15;;;;;;;5.28;1.70;;;1.20;99.90;;;;;;5049450;28;20037;-63
2023/02/15 01:03:41;;;;;;;3.35;1.80;;;1.20;99.90;;;;;;5043693;28;20037;-64
2023/02/15 01:06:07;;;;;;;2.45;1.45;;;1.20;99.90;;;;;;5048656;28;20051;-60
2023/02/15 01:08:34;;;;;;;3.42;1.63;;;1.20;99.90;;;;;;5053164;28;20072;-63
2023/02/15 01:11:08;;;;;;;3.60;1.92;;;1.20;99.90;;;;;;5052766;28;20519;-60
2023/02/15 01:13:34;;;;;;;3.95;1.70;;;1.20;99.90;;;;;;5049229;28;20440;-63
2023/02/15 01:16:00;;;;;;;2.72;1.67;;;1.20;99.90;;;;;;5053830;28;20040;-63
2023/02/15 01:18:26;;;;;;;2.13;1.35;;;1.20;99.90;;;;;;5059286;28;20055;-60
2023/02/15 01:20:52;;;;;;;2.13;1.42;;;1.20;99.90;;;;;;5050163;28;20052;-63
2023/02/15 01:23:17;;;;;;;2.78;1.50;;;1.20;99.90;;;;;;5068192;28;20101;-61
2023/02/15 01:25:43;;;;;;;2.75;1.60;;;1.20;99.90;;;;;;5048998;28;20094;-62
2023/02/15 01:28:09;;;;;;;3.28;1.52;;;1.20;99.90;;;;;;5051926;28;20040;-60
2023/02/15 01:30:34;;;;;;;3.13;1.70;;;1.20;99.90;;;;;;5048813;28;20048;-61
2023/02/15 01:33:02;;;;;;;2.65;1.50;;;1.20;99.90;;;;;;5052762;28;20517;-64
2023/02/15 01:35:28;;;;;;;3.45;1.25;;;1.20;99.90;;;;;;5053487;28;20124;-62
2023/02/15 01:37:55;;;;;;;4.30;1.60;;;1.20;99.90;;;;;;5050512;28;20555;-63
2023/02/15 01:40:22;;;;;;;2.70;1.50;;;1.20;99.90;;;;;;5054515;28;20048;-62
2023/02/15 01:42:54;;;;;;;3.42;1.50;;;1.20;99.90;;;;;;5054940;28;20032;-64
2023/02/15 01:45:31;;;;;;;3.90;1.35;;;1.20;99.90;;;;;;5054901;28;20040;-63
2023/02/15 01:48:06;;;;;;;5.25;1.55;;;1.20;99.90;;;;;;5051494;28;20522;-62
2023/02/15 01:50:38;;;;;;;3.97;1.35;;;1.20;99.90;;;;;;5053456;28;20036;-61
2023/02/15 01:53:42;;;;;;;3.47;1.35;;;1.10;99.90;;;;;;5056284;28;20045;-61
2023/02/15 01:56:14;;;;;;;3.22;1.30;;;1.10;99.90;;;;;;5052136;28;20063;-63
2023/02/15 01:58:40;;;;;;;2.75;1.30;;;1.10;99.90;;;;;;5058044;28;20491;-62
2023/02/15 02:01:08;;;;;;;3.65;1.40;;;1.10;99.90;;;;;;5049818;28;20180;-63
2023/02/15 02:03:55;;;;;;;4.38;1.83;;;1.10;99.90;;;;;;5053968;28;20706;-63
2023/02/15 02:06:21;;;;;;;3.92;1.88;;;1.10;99.90;;;;;;5045908;28;20519;-60
2023/02/15 02:08:47;;;;;;;3.13;1.77;;;1.00;99.90;;;;;;5045337;28;20061;-62
2023/02/15 02:11:14;;;;;;;2.92;1.67;;;0.90;99.90;;;;;;5052032;28;20504;-62
2023/02/15 02:13:43;;;;;;;11.63;2.33;;;0.90;99.90;;;;;;5051405;28;20033;-62
2023/02/15 02:16:18;;;;;;;3.50;1.90;;;1.00;99.90;;;;;;5044549;28;20068;-62
2023/02/15 02:19:09;;;;;;;4.53;1.67;;;0.90;99.90;;;;;;5047511;28;20818;-61
2023/02/15 02:22:14;;;;;;;3.38;1.80;;;0.90;99.90;;;;;;5047761;28;20056;-61
2023/02/15 02:24:55;;;;;;;7.90;2.10;;;0.90;99.90;;;;;;5051403;28;20051;-63
2023/02/15 02:27:39;;;;;;;4.43;2.30;;;0.90;99.90;;;;;;5053711;28;20848;-62
2023/02/15 02:30:28;;;;;;;3.53;2.20;;;0.90;99.90;;;;;;5051384;28;20048;-60
2023/02/15 02:32:58;;;;;;;3.58;2.05;;;0.90;99.90;;;;;;5047506;28;20047;-61
2023/02/15 02:35:38;;;;;;;4.20;2.83;;;0.90;99.90;;;;;;5048759;28;20045;-61
2023/02/15 02:38:08;;;;;;;5.03;2.78;;;1.00;99.90;;;;;;5047845;28;20618;-62
2023/02/15 02:41:07;;;;;;;6.15;2.50;;;0.90;99.90;;;;;;5051634;28;20085;-62
2023/02/15 02:43:38;;;;;;;5.15;2.55;;;0.90;99.90;;;;;;5044415;28;20036;-61
2023/02/15 02:46:15;;;;;;;5.05;2.45;;;0.90;99.90;;;;;;5044038;28;20065;-61
2023/02/15 02:48:41;;;;;;;7.63;3.20;;;0.90;99.90;;;;;;5054503;28;20036;-60
2023/02/15 02:51:06;;;;;;;5.60;2.78;;;0.90;99.90;;;;;;5051048;28;20529;-61
2023/02/15 02:53:33;;;;;;;6.85;2.75;;;0.90;99.90;;;;;;5054567;28;20040;-58
2023/02/15 02:56:15;;;;;;;4.82;2.88;;;0.90;99.90;;;;;;5051348;28;20066;-57
2023/02/15 02:58:49;;;;;;;6.15;2.75;;;0.90;99.90;;;;;;5054219;28;20108;-61
2023/02/15 03:01:29;;;;;;;6.68;3.50;;;0.80;99.90;;;;;;5042317;28;20067;-60
2023/02/15 03:04:04;;;;;;;4.95;3.03;;;0.90;99.90;;;;;;5045136;28;20033;-63
2023/02/15 03:06:41;;;;;;;8.07;3.25;;;0.80;99.90;;;;;;5045486;28;20055;-61
2023/02/15 03:09:15;;;;;;;6.40;3.60;;;0.90;99.90;;;;;;5051208;28;20055;-61
2023/02/15 03:11:45;;;;;;;8.45;3.42;;;0.90;99.90;;;;;;5050081;28;20040;-61
2023/02/15 03:14:14;;;;;;;8.30;3.40;;;0.90;99.90;;;;;;5054954;28;20070;-62
2023/02/15 03:16:41;;;;;;;7.53;4.07;;;0.80;99.90;;;;;;5051946;28;20036;-62
2023/02/15 03:19:15;;;;;;;10.40;3.72;;;0.80;99.90;;;;;;5049214;28;20040;-63
2023/02/15 03:21:49;;;;;;;7.38;3.67;;;0.90;99.90;;;;;;5046651;28;20068;-63
2023/02/15 03:24:20;;;;;;;8.48;4.10;;;0.80;99.90;;;;;;5055514;28;20416;-61
2023/02/15 03:26:49;;;;;;;6.78;3.35;;;0.80;99.90;;;;;;5044325;28;20040;-63
2023/02/15 03:29:17;;;;;;;8.00;4.05;;;0.80;99.90;;;;;;5056080;28;20124;-64
2023/02/15 03:31:46;;;;;;;8.82;3.63;;;0.80;99.90;;;;;;5044669;28;20504;-60
2023/02/15 03:34:15;;;;;;;8.02;3.90;;;0.80;99.90;;;;;;5043210;28;20033;-62
2023/02/15 03:37:04;;;;;;;6.95;3.80;;;0.70;99.90;;;;;;5045436;28;20059;-63
2023/02/15 03:39:41;;;;;;;5.88;3.20;;;0.70;99.90;;;;;;5056608;28;20111;-59
2023/02/15 03:42:25;;;;;;;7.18;3.42;;;0.70;99.90;;;;;;5044000;28;20059;-63
2023/02/15 03:45:10;;;;;;;7.80;3.67;;;0.70;99.90;;;;;;5051573;28;20090;-61
2023/02/15 03:47:39;;;;;;;5.78;3.15;;;0.70;99.90;;;;;;5049371;28;20095;-61
2023/02/15 03:51:33;;;;;;;7.85;3.80;;;0.70;99.90;;;;;;5050685;28;20045;-60
2023/02/15 03:52:57;;;;;;;6.07;3.22;;;0.70;99.90;;;;;;5053936;28;20389;-62
2023/02/15 03:55:23;;;;;;;4.85;3.22;;;0.70;99.90;;;;;;5053017;28;20037;-63
2023/02/15 04:03:33;;;;;;;6.05;3.40;;;0.70;99.90;;;;;;5048803;28;20045;-60
2023/02/15 04:06:01;;;;;;;6.60;3.22;;;0.70;99.90;;;;;;5050608;28;20044;-61
2023/02/15 04:10:51;;;;;;;7.57;3.95;;;0.70;99.90;;;;;;5052571;28;20048;-63
2023/02/15 04:11:13;;;;;;;9.10;4.03;;;0.80;99.90;;;;;;5054342;28;20041;-62
2023/02/15 04:13:39;;;;;;;7.20;3.92;;;0.70;99.90;;;;;;5043015;28;20037;-62
2023/02/15 04:16:04;;;;;;;9.18;4.10;;;0.60;99.90;;;;;;5046386;28;20123;-63
2023/02/15 04:26:48;;;;;;;8.60;3.58;;;0.50;99.90;;;;;;5050165;28;20037;-59
2023/02/15 04:29:15;;;;;;;5.53;3.30;;;0.50;99.90;;;;;;5057191;28;20062;-62
2023/02/15 04:31:42;;;;;;;6.78;3.75;;;0.50;99.90;;;;;;5047009;28;20042;-60
2023/02/15 04:34:08;;;;;;;9.63;3.63;;;0.60;99.90;;;;;;5055942;28;20082;-62
2023/02/15 04:36:34;;;;;;;8.15;3.50;;;0.60;99.90;;;;;;5047328;28;20143;-63
2023/02/15 04:38:59;;;;;;;6.60;3.40;;;0.50;99.90;;;;;;5057802;28;20120;-61
2023/02/15 04:41:25;;;;;;;7.40;3.90;;;0.50;99.90;;;;;;5051151;28;20132;-61
2023/02/15 04:43:50;;;;;;;9.02;4.75;;;0.50;99.90;;;;;;5057071;28;20048;-63
2023/02/15 04:46:16;;;;;;;6.75;3.13;;;0.50;99.90;;;;;;5048901;28;20033;-63
2023/02/15 04:48:42;;;;;;;6.32;3.42;;;0.50;99.90;;;;;;5058752;28;20033;-63
2023/02/15 04:51:07;;;;;;;6.32;3.60;;;0.50;99.90;;;;;;5053301;28;20032;-63
2023/02/15 04:53:34;;;;;;;9.23;3.90;;;0.50;99.90;;;;;;5056426;28;20140;-62
2023/02/15 04:55:59;;;;;;;5.93;3.28;;;0.60;99.90;;;;;;5052457;28;20043;-63
2023/02/15 04:58:25;;;;;;;6.00;3.20;;;0.50;99.90;;;;;;5053030;28;20044;-61
2023/02/15 05:00:50;;;;;;;8.23;4.47;;;0.50;99.90;;;;;;5052398;28;20467;-62
2023/02/15 05:03:16;;;;;;;10.77;3.53;;;0.50;99.90;;;;;;5058235;28;20087;-62
2023/02/15 05:05:42;;;;;;;5.90;2.90;;;0.50;99.90;;;;;;5053130;28;20080;-63
2023/02/15 05:08:08;;;;;;;6.15;3.30;;;0.60;99.90;;;;;;5055384;28;20032;-61
2023/02/15 05:10:33;;;;;;;6.60;3.30;;;0.60;99.90;;;;;;5051449;28;20025;-63
2023/02/15 05:12:59;;;;;;;5.38;3.10;;;0.60;99.90;;;;;;5047241;28;20154;-60
2023/02/15 05:15:24;;;;;;;5.93;3.03;;;0.60;99.90;;;;;;5049746;28;20037;-60
2023/02/15 05:17:50;;;;;;;6.57;3.50;;;0.60;99.90;;;;;;5054156;28;20511;-62
2023/02/15 05:20:16;;;;;;;5.88;3.28;;;0.60;99.90;;;;;;5050738;28;20443;-63
2023/02/15 05:22:41;;;;;;;8.57;3.35;;;0.50;99.90;;;;;;5048102;28;20155;-60
2023/02/15 05:30:37;;;;;;;5.68;3.00;;;0.50;99.90;;;;;;5047032;28;20041;-62
2023/02/15 05:33:02;;;;;;;5.93;3.30;;;0.50;99.90;;;;;;5048472;28;20059;-63
2023/02/15 05:35:28;;;;;;;8.13;3.15;;;0.50;99.90;;;;;;5055051;28;20041;-62
2023/02/15 05:37:53;;;;;;;7.00;3.35;;;0.40;99.90;;;;;;5052470;28;20098;-62
2023/02/15 05:40:19;;;;;;;6.28;3.45;;;0.50;99.90;;;;;;5054935;28;20738;-62
2023/02/15 05:42:45;;;;;;;5.88;3.05;;;0.40;99.90;;;;;;5055950;28;20047;-62
2023/02/15 05:45:10;;;;;;;5.28;3.08;;;0.40;99.90;;;;;;5051246;28;20033;-62
2023/02/15 05:47:36;;;;;;;5.72;2.95;;;0.40;99.90;;;;;;5045909;28;20032;-62
2023/02/15 05:50:01;;;;;;;5.82;2.95;;;0.50;99.90;;;;;;5052471;28;20533;-60
2023/02/15 05:52:27;;;;;;;4.40;2.95;;;0.50;99.90;;;;;;5046452;28;20135;-61
2023/02/15 05:54:53;;;;;;;6.28;2.85;;;0.50;99.90;;;;;;5050631;28;20067;-63
2023/02/15 05:57:19;;;;;;;7.80;3.22;;;0.50;99.90;;;;;;5048147;28;20037;-62
2023/02/15 05:59:45;;;;;;;5.68;3.17;;;0.50;99.90;;;;;;5042786;28;20044;-62
2023/02/15 06:02:11;;;;;;;4.85;3.05;;;0.50;99.90;;;;;;5046727;28;20041;-62
2023/02/15 06:04:36;;;;;;;4.72;3.00;;;0.50;99.90;;;;;;5056751;28;20381;-62
2023/02/15 06:07:02;;;;;;;4.72;2.58;;;0.50;99.90;;;;;;5051054;28;20041;-63
2023/02/15 06:09:28;;;;;;;8.40;3.05;;;0.50;99.90;;;;;;5047794;28;20083;-59
2023/02/15 06:11:54;;;;;;;5.35;2.78;;;0.50;99.90;;;;;;5048978;28;20029;-62
2023/02/15 06:14:19;;;;;;;5.82;3.20;;;0.50;99.90;;;;;;5054657;28;20033;-61
2023/02/15 06:16:45;;;;;;;9.20;3.15;;;0.50;99.90;;;;;;5050438;28;20052;-63
2023/02/15 06:19:11;;;;;;;6.20;3.15;;;0.50;99.90;;;;;;5053994;28;20041;-63
2023/02/15 06:21:37;;;;;;;6.45;3.35;;;0.50;99.90;;;;;;5050092;28;20044;-64
2023/02/15 06:24:02;;;;;;;9.18;4.10;;;0.40;99.90;;;;;;5056119;28;20041;-63
2023/02/15 06:26:28;;;;;;;6.55;3.13;;;0.40;99.90;;;;;;5048865;28;20056;-64
2023/02/15 06:28:54;;;;;;;9.02;3.80;;;0.40;99.90;;;;;;5047604;28;20044;-64
2023/02/15 06:31:19;;;;;;;9.02;3.88;;;0.40;99.90;;;;;;5041610;28;20048;-64
2023/02/15 06:33:45;;;;;;;7.72;3.63;;;0.40;99.90;;;;;;5054547;28;20483;-63
2023/02/15 06:36:10;;;;;;;6.28;3.22;;;0.40;99.90;;;;;;5046631;28;20076;-62
2023/02/15 06:38:36;;;;;;;8.05;3.22;;;0.40;99.90;;;;;;5047482;28;20048;-62
2023/02/15 06:41:02;;;;;;;5.30;3.17;;;0.40;99.90;;;;;;5045362;28;20076;-60
2023/02/15 06:43:27;;;;;;;8.20;3.47;;;0.40;99.90;;;;;;5036370;28;20040;-62
2023/02/15 06:45:53;;;;;;;5.85;3.38;;;0.50;99.90;;;;;;5040701;28;20044;-62
2023/02/15 06:48:19;;;;;;;6.38;3.33;;;0.50;99.90;;;;;;5053293;28;20083;-62
2023/02/15 06:50:44;;;;;;;7.45;3.17;;;0.50;99.90;;;;;;5048736;28;20088;-62
2023/02/15 06:53:10;;;;;;;6.18;3.45;;;0.50;99.90;;;;;;5047446;28;20059;-59
2023/02/15 06:55:35;;;;;;;4.45;2.67;;;0.50;99.90;;;;;;5047339;28;20032;-58
2023/02/15 06:58:01;;;;;;;6.55;3.10;;;0.50;99.90;;;;;;5053669;28;20036;-59
2023/02/15 07:00:27;;;;;;;6.03;3.15;;;0.50;99.90;;;;;;5043666;28;20045;-54
2023/02/15 07:02:57;;;;;;;6.20;3.30;;;0.50;99.90;;;;;;5024764;28;20116;-60
2023/02/15 07:05:24;;;;;;;5.22;2.88;;;0.50;99.90;;;;;;5038180;28;20053;-57
2023/02/15 07:07:50;;;;;;;6.35;3.20;;;0.50;99.90;;;;;;5048722;28;20542;-61
2023/02/15 07:10:15;;;;;;;4.70;2.92;;;0.50;99.90;;;;;;5047941;28;20053;-61
2023/02/15 07:12:41;;;;;;;6.43;2.70;;;0.50;99.90;;;;;;5047874;28;20052;-61
2023/02/15 07:15:25;;;;;;;2.63;1.90;;;0.60;99.90;;;;;;5050610;28;20037;-60
2023/02/15 07:17:51;;;;;;;9.48;2.65;;;0.60;99.90;;;;;;5034842;28;20064;-57
2023/02/15 07:20:22;;;;;;;4.65;2.20;;;0.60;99.90;;;;;;5037528;28;20041;-60
2023/02/15 07:22:49;;;;;;;5.22;2.60;;;0.70;99.90;;;;;;5049737;28;20040;-62
2023/02/15 07:25:15;;;;;;;5.00;2.53;;;0.70;99.90;;;;;;5047641;28;20064;-61
2023/02/15 07:27:41;;;;;;;8.98;3.65;;;0.70;99.90;;;;;;5045935;28;20041;-63
2023/02/15 07:30:10;;;;;;;6.38;3.72;;;0.70;99.90;;;;;;5054976;28;20838;-61
2023/02/15 07:32:35;;;;;;;5.22;3.13;;;0.70;99.90;;;;;;5048697;28;20037;-61
2023/02/15 07:35:01;;;;;;;6.30;2.95;;;0.80;99.90;;;;;;5054739;28;20147;-61
2023/02/15 07:37:27;;;;;;;7.43;3.97;;;0.80;99.90;;;;;;5050441;28;20093;-61
2023/02/15 07:39:53;;;;;;;9.43;4.65;;;1.00;99.90;;;;;;5056107;28;20627;-60
2023/02/15 07:42:20;;;;;;;8.35;4.05;;;1.20;99.90;;;;;;5049586;28;20038;-61
2023/02/15 07:44:46;;;;;;;9.40;4.55;;;1.40;99.90;;;;;;5053259;28;20037;-60
2023/02/15 07:47:12;;;;;;;8.77;4.50;;;1.60;99.90;;;;;;5049190;28;20408;-60
2023/02/15 07:49:38;;;;;;;10.57;4.07;;;1.90;99.90;;;;;;5040928;28;20138;-59
2023/02/15 07:52:04;;;;;;;11.38;5.38;;;2.20;99.90;;;;;;5040942;28;20390;-58
2023/02/15 07:54:29;;;;;;;7.57;4.47;;;2.30;99.90;;;;;;5039922;28;20480;-61
2023/02/15 07:56:55;;;;;;;8.98;5.05;;;2.40;99.90;;;;;;5044843;28;20044;-58
2023/02/15 07:59:21;;;;;;;11.52;5.43;;;2.60;99.90;;;;;;5049108;28;20057;-60
2023/02/15 08:01:46;;;;;;;9.70;5.03;;;2.70;99.90;;;;;;5047298;28;20667;-58
2023/02/15 08:04:12;;;;;;;21.48;5.30;;;3.00;99.90;;;;;;5056791;28;20036;-60
2023/02/15 08:06:38;;;;;;;7.18;4.45;;;3.20;99.90;;;;;;5050403;28;20032;-60
2023/02/15 08:09:08;;;;;;;14.13;4.88;;;3.20;99.90;;;;;;5041966;28;20041;-60
2023/02/15 08:11:36;;;;;;;10.55;3.90;;;3.20;99.90;;;;;;5050672;28;20040;-59
2023/02/15 08:14:17;;;;;;;8.25;3.60;;;3.20;99.90;;;;;;5056496;28;20033;-58
2023/02/15 08:16:44;;;;;;;6.95;3.08;;;3.40;99.90;;;;;;5054779;28;20071;-60
2023/02/15 08:19:12;;;;;;;8.05;3.15;;;3.60;99.90;;;;;;5058630;28;20412;-56
2023/02/15 08:21:43;;;;;;;5.82;3.17;;;3.70;99.90;;;;;;5045960;28;20032;-57
2023/02/15 08:24:10;;;;;;;7.55;3.63;;;3.70;99.90;;;;;;5048222;28;20099;-58
2023/02/15 08:26:38;;;;;;;7.18;3.33;;;3.60;99.90;;;;;;5050002;28;20049;-58
2023/02/15 08:29:04;;;;;;;8.85;3.45;;;3.60;99.90;;;;;;5056324;28;20159;-60
2023/02/15 08:31:29;;;;;;;5.32;3.38;;;3.50;99.90;;;;;;5053700;28;20048;-57
2023/02/15 08:33:56;;;;;;;9.07;3.83;;;3.50;99.90;;;;;;5058267;28;20033;-57
2023/02/15 08:36:24;;;;;;;6.18;3.45;;;3.50;99.90;;;;;;5049488;28;20044;-61
2023/02/15 08:38:50;;;;;;;7.38;3.55;;;3.60;99.90;;;;;;5059290;28;20037;-58
2023/02/15 08:41:18;;;;;;;6.15;3.28;;;3.60;99.90;;;;;;5054786;28;20095;-59
2023/02/15 08:43:46;;;;;;;7.85;3.30;;;3.60;99.90;;;;;;5052335;28;20055;-55
2023/02/15 08:46:13;;;;;;;6.10;3.33;;;3.70;99.90;;;;;;5048458;28;20080;-58
2023/02/15 08:48:39;;;;;;;4.35;2.47;;;3.80;99.90;;;;;;5059363;28;20143;-58
2023/02/15 08:51:14;;;;;;;4.75;2.40;;;3.80;99.90;;;;;;5053420;28;20375;-59
2023/02/15 08:53:43;;;;;;;8.10;3.28;;;3.90;99.90;;;;;;5056308;28;20032;-58
2023/02/15 08:56:09;;;;;;;5.35;2.80;;;4.00;99.90;;;;;;5051912;28;20458;-58
2023/02/15 08:58:36;;;;;;;5.45;2.00;;;4.10;99.90;;;;;;5054567;28;20511;-59
2023/02/15 09:01:12;;;;;;;3.70;1.83;;;4.20;99.90;;;;;;5049289;28;20041;-60
2023/02/15 09:03:38;;;;;;;5.13;2.13;;;4.40;99.90;;;;;;5058420;28;20044;-60
2023/02/15 09:06:04;;;;;;;5.57;2.95;;;4.50;99.90;;;;;;5050437;28;20041;-59
2023/02/15 09:08:30;;;;;;;5.60;2.30;;;4.70;99.90;;;;;;5056835;28;20073;-60
2023/02/15 09:11:21;;;;;;;7.78;2.38;;;4.80;99.90;;;;;;5050847;28;20032;-59
2023/02/15 09:13:58;;;;;;;3.42;2.10;;;4.90;99.90;;;;;;5048514;28;20651;-58
2023/02/15 09:16:27;;;;;;;3.30;2.20;;;5.00;99.90;;;;;;5047634;28;20098;-60
2023/02/15 09:18:53;;;;;;;5.15;2.17;;;5.10;99.90;;;;;;5059008;28;20032;-58
2023/02/15 09:21:21;;;;;;;4.22;2.08;;;5.20;99.90;;;;;;5049286;28;20045;-59
2023/02/15 09:23:49;;;;;;;4.82;2.50;;;5.40;99.90;;;;;;5049147;28;20538;-59
2023/02/15 09:26:20;;;;;;;5.68;2.63;;;5.50;99.90;;;;;;5048145;28;20045;-58
2023/02/15 09:28:48;;;;;;;4.65;2.60;;;5.70;99.90;;;;;;5055323;28;20729;-58
2023/02/15 09:31:19;;;;;;;6.22;2.70;;;5.80;99.90;;;;;;5045854;28;20090;-56
2023/02/15 09:33:46;;;;;;;5.75;3.28;;;5.90;99.90;;;;;;5054333;28;20115;-57
2023/02/15 09:36:21;;;;;;;10.63;3.17;;;6.10;99.90;;;;;;5049528;28;20052;-58
2023/02/15 09:38:48;;;;;;;5.47;2.88;;;6.30;99.90;;;;;;5053768;28;20148;-59
2023/02/15 09:41:37;;;;;;;5.28;2.70;;;6.40;99.90;;;;;;5052298;28;20060;-57
2023/02/15 09:44:09;;;;;;;4.45;2.72;;;6.60;99.90;;;;;;5051979;28;20052;-59
2023/02/15 09:46:59;;;;;;;6.65;2.85;;;6.70;99.90;;;;;;5043077;28;20072;-56
2023/02/15 09:49:51;;;;;;;9.90;3.30;;;6.80;99.90;;;;;;5059227;28;20438;-59
2023/02/15 09:52:47;;;;;;;6.82;2.97;;;6.90;99.90;;;;;;5052046;28;20439;-55
2023/02/15 09:55:26;;;;;;;6.40;3.00;;;7.10;99.90;;;;;;5052272;28;20041;-60
2023/02/15 09:57:57;;;;;;;6.95;3.47;;;7.20;99.90;;;;;;5053431;28;20294;-61
2023/02/15 10:00:25;;;;;;;6.80;3.00;;;7.30;99.90;;;;;;5049195;28;20090;-59
2023/02/15 10:03:15;;;;;;;6.68;2.63;;;7.30;99.90;;;;;;5056029;28;20074;-61
2023/02/15 10:06:04;;;;;;;4.95;2.75;;;7.50;99.90;;;;;;5052146;28;20045;-60
2023/02/15 10:08:43;;;;;;;5.13;3.33;;;7.70;99.90;;;;;;5045393;28;20777;-58
2023/02/15 10:11:39;;;;;;;10.90;2.75;;;7.90;99.90;;;;;;5048995;28;20055;-61
2023/02/15 10:14:24;;;;;;;8.23;3.08;;;8.10;99.90;;;;;;5054283;28;20033;-61
2023/02/15 10:17:19;;;;;;;7.28;3.03;;;8.30;99.90;;;;;;5049586;28;20040;-59
2023/02/15 10:20:05;;;;;;;5.95;3.20;;;8.40;99.90;;;;;;5050626;28;20518;-61
2023/02/15 10:22:51;;;;;;;4.05;2.40;;;8.70;99.90;;;;;;5043524;28;20045;-61
2023/02/15 10:25:44;;;;;;;6.30;3.20;;;8.90;99.90;;;;;;5047295;28;20040;-61
2023/02/15 10:28:18;;;;;;;4.55;2.33;;;9.10;99.90;;;;;;5050729;28;20040;-61
2023/02/15 10:31:10;;;;;;;7.25;2.10;;;9.30;99.90;;;;;;5048528;28;20029;-61
2023/02/15 10:33:40;;;;;;;8.55;2.22;;;9.60;99.90;;;;;;5055647;28;20048;-61
2023/02/15 10:36:30;;;;;;;3.45;1.67;;;9.90;99.90;;;;;;5049685;28;20135;-61
2023/02/15 10:39:34;;;;;;;5.45;2.08;;;10.30;99.90;;;;;;5049591;28;20044;-58
2023/02/15 10:41:59;;;;;;;2.28;1.33;;;10.50;99.10;;;;;;5041562;28;20044;-60
2023/02/15 10:44:32;;;;;;;;;;;10.70;95.80;;;;;;5056710;28;20044;-60
2023/02/15 10:47:35;;;;;;;4.22;1.00;;;11.20;95.60;;;;;;5043910;28;19955;-59
2023/02/15 10:50:17;;;;;;;2.67;0.60;;;11.50;95.30;;;;;;5048512;28;20166;-60
2023/02/15 10:53:13;;;;;;;1.58;0.52;;;11.70;93.80;;;;;;5052968;28;20061;-60
2023/02/15 10:55:39;;;;;;;10.07;1.03;;;11.90;93.40;;;;;;5051172;28;20037;-59
2023/02/15 10:58:25;;;;;;;;;;;12.10;92.90;;;;;;5049746;28;20385;-54
2023/02/15 11:01:10;;;;;;;9.60;1.38;;;12.20;92.80;;;;;;5048412;28;19926;-56
2023/02/15 11:03:57;;;;;;;1.33;0.70;;;12.40;92.80;;;;;;5055886;28;20033;-57
2023/02/15 11:06:25;;;;;;;2.42;0.60;;;12.50;91.60;;;;;;5047313;28;20074;-58
2023/02/15 11:09:09;;;;;;;1.42;0.47;;;12.50;92.00;;;;;;5052297;28;20120;-61
2023/02/15 11:11:43;;;;;;;7.13;0.90;;;12.60;90.80;;;;;;5049528;28;20243;-59
2023/02/15 11:14:20;;;;;;;3.85;0.90;;;12.70;90.90;;;;;;5052976;28;20040;-57
2023/02/15 11:16:51;;;;;;;1.45;0.65;;;12.80;90.70;;;;;;5051244;28;20232;-60
2023/02/15 11:19:30;;;;;;;1.42;0.80;;;12.80;88.10;;;;;;5054445;28;20548;-59
2023/02/15 11:22:03;;;;;;;4.93;0.65;;;12.80;90.10;;;;;;5046549;28;20040;-61
2023/02/15 11:24:34;;;;;;;2.17;0.90;;;12.90;90.00;;;;;;5057535;28;20033;-58
2023/02/15 11:27:21;;;;;;;1.15;0.65;;;13.00;90.10;;;;;;5049456;28;20037;-61
2023/02/15 11:30:00;;;;;;;;;;;13.00;90.30;;;;;;5053931;28;20121;-58
2023/02/15 11:32:49;;;;;;;1.50;0.60;;;13.10;87.60;;;;;;5051078;28;19926;-60
2023/02/15 11:35:19;;;;;;;0.75;0.57;;;13.20;87.20;;;;;;5044299;28;20405;-57
2023/02/15 11:37:47;;;;;;;0.50;0.40;;;13.20;86.60;;;;;;5047579;28;20419;-59
2023/02/15 11:40:41;;;;;;;2.13;0.80;;;13.20;84.50;;;;;;5038368;28;20052;-59
2023/02/15 11:43:15;;;;;;;1.13;0.60;;;13.30;85.40;;;;;;5026384;28;20131;-59
2023/02/15 11:45:42;;;;;;;1.25;0.55;;;13.40;84.40;;;;;;5050318;28;20033;-58
2023/02/15 11:48:13;;;;;;;3.20;1.08;;;13.50;86.40;;;;;;5045734;28;20044;-59
2023/02/15 11:50:40;;;;;;;2.72;0.70;;;13.50;84.90;;;;;;5048372;28;20037;-60
2023/02/15 11:53:27;;;;;;;3.15;0.57;;;13.50;83.50;;;;;;5056377;28;20709;-59
2023/02/15 11:55:54;;;;;;;0.60;0.40;;;13.60;85.20;;;;;;5047703;28;20033;-57
2023/02/15 11:58:30;;;;;;;3.05;0.95;;;13.70;80.50;;;;;;5055866;28;20504;-60
2023/02/15 12:01:00;;;;;;;;;;;13.70;81.70;;;;;;5069791;28;20167;-60
2023/02/15 12:03:47;;;;;;;1.33;0.60;;;13.80;81.10;;;;;;5042178;28;20039;-58
2023/02/15 12:06:28;;;;;;;1.20;0.90;;;13.70;81.50;;;;;;5046006;28;20033;-60
2023/02/15 12:09:03;;;;;;;1.75;0.70;;;13.70;80.20;;;;;;5053625;28;20592;-55
2023/02/15 12:11:36;;;;;;;2.10;0.70;;;13.70;80.30;;;;;;5042797;28;20037;-55
2023/02/15 12:14:07;;;;;;;2.22;0.80;;;13.70;80.70;;;;;;5055757;28;20032;-60
2023/02/15 12:16:55;;;;;;;2.00;0.70;;;13.70;81.10;;;;;;5047608;28;20389;-59
2023/02/15 12:19:39;;;;;;;3.20;1.40;;;13.70;80.00;;;;;;5046707;28;20132;-60
2023/02/15 12:22:06;;;;;;;1.40;0.70;;;13.70;79.70;;;;;;5043512;28;20060;-58
2023/02/15 12:24:45;;;;;;;1.23;0.63;;;13.70;78.40;;;;;;5047602;28;20499;-58
2023/02/15 12:27:21;;;;;;;3.67;0.70;;;13.70;77.80;;;;;;5047088;28;20456;-58
2023/02/15 12:29:52;;;;;;;1.65;0.80;;;13.70;77.40;;;;;;5049828;28;20044;-61
2023/02/15 12:32:23;;;;;;;1.30;0.82;;;13.70;75.20;;;;;;5054489;28;20040;-59
2023/02/15 12:34:51;;;;;;;1.75;0.82;;;13.70;75.60;;;;;;5055330;28;20377;-59
2023/02/15 12:37:25;;;;;;;3.20;0.80;;;13.70;73.20;;;;;;5054044;28;20095;-58
2023/02/15 12:39:56;;;;;;;3.78;1.02;;;13.80;74.00;;;;;;5060452;28;20119;-59
2023/02/15 12:42:24;;;;;;;2.90;0.80;;;13.80;75.20;;;;;;5053013;28;20042;-61
2023/02/15 12:45:03;;;;;;;2.97;0.90;;;13.80;76.30;;;;;;5053590;28;20033;-60
2023/02/15 12:47:31;;;;;;;2.28;0.80;;;13.80;73.20;;;;;;5052449;28;20408;-60
2023/02/15 12:50:16;;;;;;;2.85;1.15;;;13.80;71.80;;;;;;5057839;28;20101;-60
2023/02/15 12:52:44;;;;;;;2.83;1.35;;;13.80;71.40;;;;;;5056806;28;20137;-60
2023/02/15 12:55:23;;;;;;;2.40;1.30;;;13.80;72.40;;;;;;5055126;28;20042;-60
2023/02/15 12:57:50;;;;;;;6.63;2.05;;;13.70;70.90;;;;;;5054465;28;20048;-59
2023/02/15 13:00:19;;;;;;;3.83;1.48;;;13.70;71.60;;;;;;5054028;28;20676;-59
2023/02/15 13:02:53;;;;;;;2.22;1.50;;;13.60;70.20;;;;;;5045375;28;20040;-60
2023/02/15 13:05:40;;;;;;;2.97;1.75;;;13.60;69.30;;;;;;5041735;28;20501;-60
2023/02/15 13:08:09;;;;;;;2.90;1.80;;;13.60;69.80;;;;;;5050123;28;20775;-60
2023/02/15 13:10:39;;;;;;;4.50;1.98;;;13.60;69.80;;;;;;5052408;28;20099;-60
2023/02/15 13:13:21;;;;;;;4.13;2.00;;;13.60;67.50;;;;;;5048238;28;20037;-58
2023/02/15 13:15:50;;;;;;;4.32;2.10;;;13.70;70.20;;;;;;5054751;28;20221;-57
2023/02/15 13:18:38;;;;;;;2.80;1.67;;;13.60;70.10;;;;;;5056750;28;20041;-60
2023/02/15 13:21:15;;;;;;;5.43;1.70;;;13.70;70.10;;;;;;5050095;28;20127;-60
2023/02/15 13:23:45;;;;;;;5.82;1.70;;;13.70;70.40;;;;;;5054921;28;20843;-61
2023/02/15 13:26:18;;;;;;;5.30;1.73;;;13.60;72.00;;;;;;5049636;28;20090;-58
2023/02/15 13:28:51;;;;;;;5.18;2.17;;;13.60;71.30;;;;;;5057714;28;20150;-61
2023/02/15 13:31:23;;;;;;;5.45;1.83;;;13.60;69.40;;;;;;5049561;28;20689;-58
2023/02/15 13:33:53;;;;;;;4.82;1.60;;;13.60;75.50;;;;;;5056805;28;20072;-60
2023/02/15 13:36:59;;;;;;;5.05;1.98;;;13.50;75.00;;;;;;5048635;28;20312;-60